sensor_id;sensor_type;location;lat;lon;timestamp;pressure;altitude;pressure_sealevel;temperature;humidity
12213;BME280;6169;44.158;22.788;2023-04-15T00:01:33;100198.72;;;12.03;47.66
12213;BME280;6169;44.158;22.788;2023-04-15T00:06:38;100206.94;;;12.08;47.05
12213;BME280;6169;44.158;22.788;2023-04-15T00:11:40;100198.91;;;11.91;48.53
12213;BME280;6169;44.158;22.788;2023-04-15T00:16:42;100210.03;;;12.17;46.54
12213;BME280;6169;44.158;22.788;2023-04-15T00:21:46;100200.75;;;11.36;46.49
12213;BME280;6169;44.158;22.788;2023-04-15T00:26:48;100216.53;;;10.96;47.31
12213;BME280;6169;44.158;22.788;2023-04-15T00:31:50;100222.91;;;11.23;48.12
12213;BME280;6169;44.158;22.788;2023-04-15T00:36:54;100215.75;;;11.17;47.19
12213;BME280;6169;44.158;22.788;2023-04-15T00:41:57;100224.94;;;11.11;48.62
12213;BME280;6169;44.158;22.788;2023-04-15T00:46:59;100217.31;;;11.13;48.25
12213;BME280;6169;44.158;22.788;2023-04-15T00:52:03;100231.28;;;11.22;47.42
12213;BME280;6169;44.158;22.788;2023-04-15T00:57:05;100231.19;;;11.11;49.01
12213;BME280;6169;44.158;22.788;2023-04-15T01:02:09;100241.69;;;11.25;49.01
12213;BME280;6169;44.158;22.788;2023-04-15T01:07:12;100250.03;;;11.18;48.62
12213;BME280;6169;44.158;22.788;2023-04-15T01:12:15;100254.28;;;11.09;49.30
12213;BME280;6169;44.158;22.788;2023-04-15T01:17:18;100259.91;;;11.24;49.33
12213;BME280;6169;44.158;22.788;2023-04-15T01:22:22;100258.38;;;11.55;48.77
12213;BME280;6169;44.158;22.788;2023-04-15T01:27:26;100263.88;;;11.61;48.04
12213;BME280;6169;44.158;22.788;2023-04-15T01:32:28;100259.97;;;11.73;47.48
12213;BME280;6169;44.158;22.788;2023-04-15T01:37:31;100260.34;;;11.60;47.82
12213;BME280;6169;44.158;22.788;2023-04-15T01:42:35;100259.22;;;11.34;48.09
12213;BME280;6169;44.158;22.788;2023-04-15T01:47:38;100109.63;;;10.34;47.75
12213;BME280;6169;44.158;22.788;2023-04-15T01:52:40;100258.16;;;10.96;47.39
12213;BME280;6169;44.158;22.788;2023-04-15T01:57:44;100252.13;;;11.11;46.92
12213;BME280;6169;44.158;22.788;2023-04-15T02:02:47;100273.00;;;11.27;45.29
12213;BME280;6169;44.158;22.788;2023-04-15T02:07:49;100272.03;;;10.78;47.68
12213;BME280;6169;44.158;22.788;2023-04-15T02:12:52;100268.13;;;10.90;47.50
12213;BME280;6169;44.158;22.788;2023-04-15T02:17:55;100274.34;;;10.69;47.10
12213;BME280;6169;44.158;22.788;2023-04-15T02:22:58;100276.00;;;10.70;46.74
12213;BME280;6169;44.158;22.788;2023-04-15T02:28:03;100284.53;;;10.96;47.71
12213;BME280;6169;44.158;22.788;2023-04-15T02:33:05;100279.88;;;10.91;47.55
12213;BME280;6169;44.158;22.788;2023-04-15T02:38:08;100283.22;;;10.47;47.82
12213;BME280;6169;44.158;22.788;2023-04-15T02:43:12;100290.47;;;10.59;47.09
12213;BME280;6169;44.158;22.788;2023-04-15T02:48:14;100297.63;;;10.65;47.18
12213;BME280;6169;44.158;22.788;2023-04-15T02:53:18;100297.09;;;10.34;50.63
12213;BME280;6169;44.158;22.788;2023-04-15T02:58:22;100289.91;;;10.74;47.65
12213;BME280;6169;44.158;22.788;2023-04-15T03:03:24;100295.03;;;10.70;50.42
12213;BME280;6169;44.158;22.788;2023-04-15T03:08:27;100301.81;;;11.23;48.80
12213;BME280;6169;44.158;22.788;2023-04-15T03:13:31;100300.66;;;11.19;48.17
12213;BME280;6169;44.158;22.788;2023-04-15T03:18:33;100300.75;;;11.07;47.31
12213;BME280;6169;44.158;22.788;2023-04-15T03:23:35;100295.66;;;10.60;47.92
12213;BME280;6169;44.158;22.788;2023-04-15T03:28:39;100327.34;;;9.80;49.95
12213;BME280;6169;44.158;22.788;2023-04-15T03:33:41;100313.91;;;10.48;49.51
12213;BME280;6169;44.158;22.788;2023-04-15T03:38:43;100319.09;;;10.33;49.38
12213;BME280;6169;44.158;22.788;2023-04-15T03:43:47;100336.50;;;10.49;47.96
12213;BME280;6169;44.158;22.788;2023-04-15T03:48:51;100338.28;;;10.26;49.64
12213;BME280;6169;44.158;22.788;2023-04-15T03:53:53;100330.31;;;10.08;48.44
12213;BME280;6169;44.158;22.788;2023-04-15T03:58:57;100336.44;;;10.15;47.29
12213;BME280;6169;44.158;22.788;2023-04-15T04:03:59;100333.75;;;10.03;47.27
12213;BME280;6169;44.158;22.788;2023-04-15T04:09:01;100347.25;;;9.98;48.45
12213;BME280;6169;44.158;22.788;2023-04-15T04:14:05;100361.75;;;10.04;47.98
12213;BME280;6169;44.158;22.788;2023-04-15T04:19:08;100379.38;;;10.30;49.75
12213;BME280;6169;44.158;22.788;2023-04-15T04:24:10;100355.06;;;10.40;49.86
12213;BME280;6169;44.158;22.788;2023-04-15T04:29:14;100352.31;;;10.52;48.11
12213;BME280;6169;44.158;22.788;2023-04-15T04:34:16;100357.31;;;10.26;49.55
12213;BME280;6169;44.158;22.788;2023-04-15T04:39:18;100366.88;;;10.17;51.83
12213;BME280;6169;44.158;22.788;2023-04-15T04:44:22;100355.50;;;10.94;49.01
12213;BME280;6169;44.158;22.788;2023-04-15T04:49:24;100366.53;;;11.60;46.34
12213;BME280;6169;44.158;22.788;2023-04-15T04:54:26;100389.38;;;11.20;52.21
12213;BME280;6169;44.158;22.788;2023-04-15T04:59:29;100385.94;;;11.08;54.33
12213;BME280;6169;44.158;22.788;2023-04-15T05:04:32;100391.91;;;11.83;53.15
12213;BME280;6169;44.158;22.788;2023-04-15T05:09:34;100385.97;;;12.62;50.63
12213;BME280;6169;44.158;22.788;2023-04-15T05:14:37;100401.81;;;12.65;50.64
12213;BME280;6169;44.158;22.788;2023-04-15T05:19:40;100397.81;;;13.37;49.00
12213;BME280;6169;44.158;22.788;2023-04-15T05:24:42;100410.94;;;13.83;47.01
12213;BME280;6169;44.158;22.788;2023-04-15T05:29:45;100417.56;;;13.97;46.60
12213;BME280;6169;44.158;22.788;2023-04-15T05:34:47;100419.59;;;14.27;48.65
12213;BME280;6169;44.158;22.788;2023-04-15T05:39:50;100417.69;;;14.27;48.91
12213;BME280;6169;44.158;22.788;2023-04-15T05:44:53;100426.75;;;14.43;47.91
12213;BME280;6169;44.158;22.788;2023-04-15T05:49:55;100429.50;;;14.43;47.91
12213;BME280;6169;44.158;22.788;2023-04-15T05:54:58;100432.88;;;14.71;47.03
12213;BME280;6169;44.158;22.788;2023-04-15T06:00:03;100425.78;;;15.01;46.10
12213;BME280;6169;44.158;22.788;2023-04-15T06:05:06;100432.06;;;15.01;46.53
12213;BME280;6169;44.158;22.788;2023-04-15T06:10:11;100436.19;;;15.45;44.62
12213;BME280;6169;44.158;22.788;2023-04-15T06:15:14;100436.97;;;15.71;40.04
12213;BME280;6169;44.158;22.788;2023-04-15T06:20:17;100440.19;;;15.93;38.30
12213;BME280;6169;44.158;22.788;2023-04-15T06:25:19;100446.00;;;15.87;38.96
12213;BME280;6169;44.158;22.788;2023-04-15T06:30:22;100452.44;;;16.16;39.49
12213;BME280;6169;44.158;22.788;2023-04-15T06:35:24;100456.72;;;15.27;38.93
12213;BME280;6169;44.158;22.788;2023-04-15T06:40:27;100473.41;;;15.41;37.91
12213;BME280;6169;44.158;22.788;2023-04-15T06:45:30;100469.47;;;16.13;36.94
12213;BME280;6169;44.158;22.788;2023-04-15T06:50:33;100476.56;;;16.24;36.06
12213;BME280;6169;44.158;22.788;2023-04-15T06:55:35;100481.69;;;16.52;36.39
12213;BME280;6169;44.158;22.788;2023-04-15T07:00:39;100488.88;;;16.32;36.15
12213;BME280;6169;44.158;22.788;2023-04-15T07:05:41;100496.91;;;16.03;35.50
12213;BME280;6169;44.158;22.788;2023-04-15T07:10:43;100482.75;;;16.56;34.97
12213;BME280;6169;44.158;22.788;2023-04-15T07:15:47;100494.75;;;17.14;34.98
12213;BME280;6169;44.158;22.788;2023-04-15T07:20:49;100499.47;;;16.59;35.24
12213;BME280;6169;44.158;22.788;2023-04-15T07:25:51;100489.84;;;15.87;36.41
12213;BME280;6169;44.158;22.788;2023-04-15T07:30:55;100498.88;;;15.92;36.22
12213;BME280;6169;44.158;22.788;2023-04-15T07:35:58;100483.16;;;16.18;36.42
12213;BME280;6169;44.158;22.788;2023-04-15T07:41:00;100482.75;;;17.69;34.90
12213;BME280;6169;44.158;22.788;2023-04-15T07:46:04;100311.66;;;16.70;35.65
12213;BME280;6169;44.158;22.788;2023-04-15T07:51:06;100479.09;;;17.78;34.21
12213;BME280;6169;44.158;22.788;2023-04-15T07:56:10;100475.41;;;17.64;34.40
12213;BME280;6169;44.158;22.788;2023-04-15T08:01:14;100483.16;;;18.77;32.83
12213;BME280;6169;44.158;22.788;2023-04-15T08:06:16;100483.88;;;18.21;32.47
12213;BME280;6169;44.158;22.788;2023-04-15T08:11:18;100488.50;;;18.01;33.14
12213;BME280;6169;44.158;22.788;2023-04-15T08:16:23;100484.50;;;18.80;32.11
12213;BME280;6169;44.158;22.788;2023-04-15T08:21:27;100486.13;;;18.81;31.67
12213;BME280;6169;44.158;22.788;2023-04-15T08:26:30;100477.66;;;18.53;31.02
12213;BME280;6169;44.158;22.788;2023-04-15T08:31:34;100476.53;;;18.97;31.47
12213;BME280;6169;44.158;22.788;2023-04-15T08:36:36;100470.41;;;18.81;31.67
12213;BME280;6169;44.158;22.788;2023-04-15T08:41:41;100448.81;;;19.87;29.59
12213;BME280;6169;44.158;22.788;2023-04-15T08:46:49;100458.41;;;19.62;29.81
12213;BME280;6169;44.158;22.788;2023-04-15T08:51:52;100451.69;;;19.95;28.88
12213;BME280;6169;44.158;22.788;2023-04-15T08:56:57;100441.16;;;19.70;27.84
12213;BME280;6169;44.158;22.788;2023-04-15T09:02:01;100455.13;;;19.73;28.10
12213;BME280;6169;44.158;22.788;2023-04-15T09:07:04;100457.47;;;19.01;28.75
12213;BME280;6169;44.158;22.788;2023-04-15T09:12:07;100447.34;;;20.58;28.05
12213;BME280;6169;44.158;22.788;2023-04-15T09:17:11;100449.66;;;20.29;27.62
12213;BME280;6169;44.158;22.788;2023-04-15T09:22:14;100452.38;;;19.59;27.87
12213;BME280;6169;44.158;22.788;2023-04-15T09:27:16;100445.88;;;20.24;27.56
12213;BME280;6169;44.158;22.788;2023-04-15T09:32:20;100399.69;;;20.89;27.12
12213;BME280;6169;44.158;22.788;2023-04-15T09:37:34;100386.31;;;21.05;27.02
12213;BME280;6169;44.158;22.788;2023-04-15T09:42:53;100436.31;;;22.19;26.69
12213;BME280;6169;44.158;22.788;2023-04-15T09:53:16;100437.94;;;20.82;26.37
12213;BME280;6169;44.158;22.788;2023-04-15T09:58:20;100420.66;;;21.12;26.37
12213;BME280;6169;44.158;22.788;2023-04-15T10:03:25;100416.84;;;20.27;27.45
12213;BME280;6169;44.158;22.788;2023-04-15T10:08:29;100421.94;;;20.34;26.74
12213;BME280;6169;44.158;22.788;2023-04-15T10:13:32;100421.69;;;21.16;26.09
12213;BME280;6169;44.158;22.788;2023-04-15T10:18:41;100252.41;;;20.12;26.98
12213;BME280;6169;44.158;22.788;2023-04-15T10:23:44;100407.59;;;21.04;25.32
12213;BME280;6169;44.158;22.788;2023-04-15T10:28:47;100414.88;;;20.41;24.74
12213;BME280;6169;44.158;22.788;2023-04-15T10:33:51;100411.69;;;21.60;25.12
12213;BME280;6169;44.158;22.788;2023-04-15T10:38:54;100408.91;;;22.00;24.08
12213;BME280;6169;44.158;22.788;2023-04-15T10:44:00;100400.91;;;22.91;23.60
12213;BME280;6169;44.158;22.788;2023-04-15T10:49:08;100245.59;;;20.55;23.44
12213;BME280;6169;44.158;22.788;2023-04-15T10:54:14;100400.19;;;21.45;24.38
12213;BME280;6169;44.158;22.788;2023-04-15T10:59:16;100404.63;;;22.52;24.47
12213;BME280;6169;44.158;22.788;2023-04-15T11:04:56;100401.00;;;21.45;24.09
12213;BME280;6169;44.158;22.788;2023-04-15T11:09:59;100404.78;;;22.38;23.04
12213;BME280;6169;44.158;22.788;2023-04-15T11:15:27;100402.50;;;21.82;23.57
12213;BME280;6169;44.158;22.788;2023-04-15T11:20:32;100391.91;;;22.42;22.55
12213;BME280;6169;44.158;22.788;2023-04-15T11:25:35;100389.78;;;22.39;21.64
12213;BME280;6169;44.158;22.788;2023-04-15T11:30:39;100388.66;;;23.65;21.56
12213;BME280;6169;44.158;22.788;2023-04-15T11:35:43;100394.38;;;23.60;21.74
12213;BME280;6169;44.158;22.788;2023-04-15T11:40:46;100389.34;;;22.80;23.59
12213;BME280;6169;44.158;22.788;2023-04-15T11:45:51;100236.47;;;21.56;23.42
12213;BME280;6169;44.158;22.788;2023-04-15T11:50:57;100383.78;;;22.80;21.89
12213;BME280;6169;44.158;22.788;2023-04-15T11:56:01;100390.47;;;22.97;22.18
12213;BME280;6169;44.158;22.788;2023-04-15T12:01:05;100378.31;;;22.14;23.23
12213;BME280;6169;44.158;22.788;2023-04-15T12:06:12;100382.69;;;23.46;19.87
12213;BME280;6169;44.158;22.788;2023-04-15T12:11:16;100390.97;;;24.22;22.67
12213;BME280;6169;44.158;22.788;2023-04-15T12:16:19;100392.72;;;23.97;20.77
12213;BME280;6169;44.158;22.788;2023-04-15T12:21:26;100391.63;;;23.90;21.56
12213;BME280;6169;44.158;22.788;2023-04-15T12:26:32;100390.25;;;23.75;21.90
12213;BME280;6169;44.158;22.788;2023-04-15T12:31:35;100391.81;;;23.46;22.56
12213;BME280;6169;44.158;22.788;2023-04-15T12:36:39;100398.00;;;23.52;24.18
12213;BME280;6169;44.158;22.788;2023-04-15T12:41:42;100402.34;;;23.70;23.05
12213;BME280;6169;44.158;22.788;2023-04-15T12:46:45;100396.06;;;23.35;24.65
12213;BME280;6169;44.158;22.788;2023-04-15T12:51:50;100397.72;;;23.45;22.90
12213;BME280;6169;44.158;22.788;2023-04-15T12:56:54;100398.44;;;24.01;24.08
12213;BME280;6169;44.158;22.788;2023-04-15T13:01:57;100398.13;;;23.94;22.52
12213;BME280;6169;44.158;22.788;2023-04-15T13:07:03;100402.94;;;24.98;21.52
12213;BME280;6169;44.158;22.788;2023-04-15T13:12:06;100393.97;;;25.59;21.55
12213;BME280;6169;44.158;22.788;2023-04-15T13:17:09;100385.41;;;26.01;21.11
12213;BME280;6169;44.158;22.788;2023-04-15T13:22:13;100382.84;;;25.13;22.90
12213;BME280;6169;44.158;22.788;2023-04-15T13:27:15;100385.59;;;24.59;22.98
12213;BME280;6169;44.158;22.788;2023-04-15T13:32:18;100388.34;;;24.47;23.00
12213;BME280;6169;44.158;22.788;2023-04-15T13:37:25;100387.44;;;23.83;23.20
12213;BME280;6169;44.158;22.788;2023-04-15T13:42:27;100400.41;;;23.62;23.48
12213;BME280;6169;44.158;22.788;2023-04-15T13:47:30;100399.88;;;23.69;22.11
12213;BME280;6169;44.158;22.788;2023-04-15T13:52:34;100396.50;;;23.93;22.77
12213;BME280;6169;44.158;22.788;2023-04-15T13:57:36;100394.59;;;23.85;22.65
12213;BME280;6169;44.158;22.788;2023-04-15T14:02:39;100393.97;;;24.80;21.54
12213;BME280;6169;44.158;22.788;2023-04-15T14:07:44;100399.78;;;25.21;22.19
12213;BME280;6169;44.158;22.788;2023-04-15T14:12:46;100395.38;;;26.02;20.43
12213;BME280;6169;44.158;22.788;2023-04-15T14:17:49;100392.47;;;25.74;20.47
12213;BME280;6169;44.158;22.788;2023-04-15T14:22:53;100272.09;;;23.65;21.55
12213;BME280;6169;44.158;22.788;2023-04-15T14:27:55;100387.84;;;24.87;22.15
12213;BME280;6169;44.158;22.788;2023-04-15T14:32:58;100377.09;;;24.85;22.51
12213;BME280;6169;44.158;22.788;2023-04-15T14:38:02;100283.69;;;23.88;21.62
12213;BME280;6169;44.158;22.788;2023-04-15T14:43:05;100379.97;;;24.89;21.67
12213;BME280;6169;44.158;22.788;2023-04-15T14:48:09;100385.84;;;24.54;21.21
12213;BME280;6169;44.158;22.788;2023-04-15T14:53:13;100378.63;;;24.11;22.01
12213;BME280;6169;44.158;22.788;2023-04-15T14:58:16;100377.81;;;23.81;22.06
12213;BME280;6169;44.158;22.788;2023-04-15T15:03:18;100382.16;;;23.91;22.23
12213;BME280;6169;44.158;22.788;2023-04-15T15:08:22;100370.78;;;23.83;22.47
12213;BME280;6169;44.158;22.788;2023-04-15T15:13:25;100364.81;;;23.94;22.73
12213;BME280;6169;44.158;22.788;2023-04-15T15:18:27;100336.91;;;23.22;23.42
12213;BME280;6169;44.158;22.788;2023-04-15T15:23:31;100328.66;;;22.79;22.24
12213;BME280;6169;44.158;22.788;2023-04-15T15:28:34;100373.25;;;23.29;22.30
12213;BME280;6169;44.158;22.788;2023-04-15T15:33:36;100364.13;;;23.76;22.08
12213;BME280;6169;44.158;22.788;2023-04-15T15:38:41;100364.44;;;23.74;21.16
12213;BME280;6169;44.158;22.788;2023-04-15T15:43:43;100364.88;;;23.38;21.91
12213;BME280;6169;44.158;22.788;2023-04-15T15:48:46;100374.22;;;23.33;22.30
12213;BME280;6169;44.158;22.788;2023-04-15T15:53:50;100357.78;;;23.20;23.21
12213;BME280;6169;44.158;22.788;2023-04-15T15:58:53;100376.19;;;23.33;23.74
12213;BME280;6169;44.158;22.788;2023-04-15T16:03:56;100360.63;;;22.93;23.94
12213;BME280;6169;44.158;22.788;2023-04-15T16:09:00;100365.19;;;22.72;25.50
12213;BME280;6169;44.158;22.788;2023-04-15T16:14:04;100378.22;;;22.63;25.23
12213;BME280;6169;44.158;22.788;2023-04-15T16:19:07;100366.31;;;22.45;25.70
12213;BME280;6169;44.158;22.788;2023-04-15T16:24:11;100376.75;;;22.39;26.06
12213;BME280;6169;44.158;22.788;2023-04-15T16:29:15;100369.44;;;22.26;25.94
12213;BME280;6169;44.158;22.788;2023-04-15T16:34:19;100380.75;;;22.07;26.55
12213;BME280;6169;44.158;22.788;2023-04-15T16:39:24;100376.50;;;22.01;26.49
12213;BME280;6169;44.158;22.788;2023-04-15T16:44:28;100381.38;;;21.95;27.37
12213;BME280;6169;44.158;22.788;2023-04-15T16:49:32;100387.69;;;21.78;26.87
12213;BME280;6169;44.158;22.788;2023-04-15T16:54:38;100401.75;;;21.59;27.79
12213;BME280;6169;44.158;22.788;2023-04-15T16:59:42;100405.31;;;21.51;27.12
12213;BME280;6169;44.158;22.788;2023-04-15T17:04:45;100366.81;;;21.10;27.55
12213;BME280;6169;44.158;22.788;2023-04-15T17:09:50;100419.31;;;21.32;28.19
12213;BME280;6169;44.158;22.788;2023-04-15T17:14:53;100413.75;;;21.01;28.41
12213;BME280;6169;44.158;22.788;2023-04-15T17:19:56;100407.16;;;20.88;27.53
12213;BME280;6169;44.158;22.788;2023-04-15T17:25:02;100425.84;;;20.69;28.23
12213;BME280;6169;44.158;22.788;2023-04-15T17:30:07;100428.22;;;20.48;28.39
12213;BME280;6169;44.158;22.788;2023-04-15T17:35:11;100440.13;;;20.07;28.71
12213;BME280;6169;44.158;22.788;2023-04-15T17:40:15;100445.34;;;20.22;28.36
12213;BME280;6169;44.158;22.788;2023-04-15T17:45:19;100460.09;;;20.32;28.80
12213;BME280;6169;44.158;22.788;2023-04-15T17:50:23;100463.34;;;20.34;28.32
12213;BME280;6169;44.158;22.788;2023-04-15T17:55:28;100475.00;;;20.31;28.37
12213;BME280;6169;44.158;22.788;2023-04-15T18:00:31;100475.31;;;20.29;28.44
12213;BME280;6169;44.158;22.788;2023-04-15T18:05:35;100475.69;;;20.50;28.40
12213;BME280;6169;44.158;22.788;2023-04-15T18:10:40;100489.41;;;20.27;28.64
12213;BME280;6169;44.158;22.788;2023-04-15T18:15:44;100486.25;;;20.34;28.75
12213;BME280;6169;44.158;22.788;2023-04-15T18:20:49;100512.31;;;20.14;29.38
12213;BME280;6169;44.158;22.788;2023-04-15T18:25:54;100511.56;;;19.95;29.30
12213;BME280;6169;44.158;22.788;2023-04-15T18:30:59;100519.94;;;19.90;29.75
12213;BME280;6169;44.158;22.788;2023-04-15T18:36:04;100530.66;;;19.45;30.13
12213;BME280;6169;44.158;22.788;2023-04-15T18:41:10;100538.44;;;19.37;30.75
12213;BME280;6169;44.158;22.788;2023-04-15T18:46:14;100527.94;;;19.39;31.55
12213;BME280;6169;44.158;22.788;2023-04-15T18:51:17;100534.28;;;19.21;31.69
12213;BME280;6169;44.158;22.788;2023-04-15T18:56:22;100539.88;;;19.16;31.67
12213;BME280;6169;44.158;22.788;2023-04-15T19:01:27;100547.91;;;19.31;31.84
12213;BME280;6169;44.158;22.788;2023-04-15T19:06:30;100549.75;;;19.55;32.24
12213;BME280;6169;44.158;22.788;2023-04-15T19:11:36;100544.56;;;19.34;32.78
12213;BME280;6169;44.158;22.788;2023-04-15T19:16:39;100551.69;;;19.35;33.93
12213;BME280;6169;44.158;22.788;2023-04-15T19:21:43;100556.69;;;19.52;33.26
12213;BME280;6169;44.158;22.788;2023-04-15T19:26:51;100551.06;;;19.25;32.89
12213;BME280;6169;44.158;22.788;2023-04-15T19:31:55;100557.16;;;19.22;32.01
12213;BME280;6169;44.158;22.788;2023-04-15T19:36:59;100557.00;;;19.32;31.79
12213;BME280;6169;44.158;22.788;2023-04-15T19:42:04;100554.91;;;19.24;32.78
12213;BME280;6169;44.158;22.788;2023-04-15T19:47:08;100554.56;;;19.11;33.62
12213;BME280;6169;44.158;22.788;2023-04-15T19:52:12;100552.06;;;19.29;33.55
12213;BME280;6169;44.158;22.788;2023-04-15T19:57:17;100556.09;;;19.17;33.72
12213;BME280;6169;44.158;22.788;2023-04-15T20:02:21;100557.53;;;19.15;33.46
12213;BME280;6169;44.158;22.788;2023-04-15T20:07:25;100553.22;;;19.09;34.07
12213;BME280;6169;44.158;22.788;2023-04-15T20:12:30;100554.69;;;18.82;35.11
12213;BME280;6169;44.158;22.788;2023-04-15T20:17:34;100563.09;;;19.10;34.60
12213;BME280;6169;44.158;22.788;2023-04-15T20:22:38;100561.03;;;18.83;34.74
12213;BME280;6169;44.158;22.788;2023-04-15T20:27:42;100556.00;;;18.85;35.16
12213;BME280;6169;44.158;22.788;2023-04-15T20:32:46;100556.44;;;18.73;35.19
12213;BME280;6169;44.158;22.788;2023-04-15T20:37:48;100567.44;;;19.16;34.66
12213;BME280;6169;44.158;22.788;2023-04-15T20:42:52;100575.19;;;19.33;34.00
12213;BME280;6169;44.158;22.788;2023-04-15T20:47:55;100575.84;;;19.25;34.05
12213;BME280;6169;44.158;22.788;2023-04-15T20:52:58;100566.88;;;18.76;33.73
12213;BME280;6169;44.158;22.788;2023-04-15T20:58:02;100430.69;;;18.07;33.61
12213;BME280;6169;44.158;22.788;2023-04-15T21:03:05;100563.47;;;19.03;33.70
12213;BME280;6169;44.158;22.788;2023-04-15T21:08:07;100580.31;;;19.39;33.36
12213;BME280;6169;44.158;22.788;2023-04-15T21:13:11;100576.31;;;19.51;32.92
12213;BME280;6169;44.158;22.788;2023-04-15T21:18:17;100576.88;;;19.29;32.77
12213;BME280;6169;44.158;22.788;2023-04-15T21:23:19;100580.69;;;19.14;32.71
12213;BME280;6169;44.158;22.788;2023-04-15T21:28:23;100557.34;;;18.87;33.46
12213;BME280;6169;44.158;22.788;2023-04-15T21:33:27;100577.84;;;19.00;32.21
12213;BME280;6169;44.158;22.788;2023-04-15T21:38:29;100581.06;;;19.26;33.49
12213;BME280;6169;44.158;22.788;2023-04-15T21:43:33;100583.28;;;18.86;33.39
12213;BME280;6169;44.158;22.788;2023-04-15T21:48:35;100586.41;;;18.80;32.67
12213;BME280;6169;44.158;22.788;2023-04-15T21:53:38;100596.94;;;18.48;35.11
12213;BME280;6169;44.158;22.788;2023-04-15T21:58:41;100593.00;;;18.55;34.19
12213;BME280;6169;44.158;22.788;2023-04-15T22:03:44;100603.84;;;18.17;34.39
12213;BME280;6169;44.158;22.788;2023-04-15T22:08:46;100601.16;;;17.77;36.13
12213;BME280;6169;44.158;22.788;2023-04-15T22:13:49;100598.31;;;18.22;35.25
12213;BME280;6169;44.158;22.788;2023-04-15T22:18:52;100596.22;;;18.09;34.78
12213;BME280;6169;44.158;22.788;2023-04-15T22:23:54;100600.88;;;17.79;34.57
12213;BME280;6169;44.158;22.788;2023-04-15T22:28:57;100610.31;;;17.68;36.21
12213;BME280;6169;44.158;22.788;2023-04-15T22:34:00;100607.41;;;17.54;35.05
12213;BME280;6169;44.158;22.788;2023-04-15T22:39:02;100608.19;;;17.59;37.30
12213;BME280;6169;44.158;22.788;2023-04-15T22:44:06;100606.75;;;17.67;36.82
12213;BME280;6169;44.158;22.788;2023-04-15T22:49:08;100618.22;;;17.40;36.87
12213;BME280;6169;44.158;22.788;2023-04-15T22:54:11;100609.38;;;17.48;37.41
12213;BME280;6169;44.158;22.788;2023-04-15T23:04:16;100616.53;;;16.94;37.23
12213;BME280;6169;44.158;22.788;2023-04-15T23:09:18;100620.03;;;17.05;36.43
12213;BME280;6169;44.158;22.788;2023-04-15T23:14:22;100620.88;;;17.55;38.14
12213;BME280;6169;44.158;22.788;2023-04-15T23:19:25;100624.13;;;17.57;37.55
12213;BME280;6169;44.158;22.788;2023-04-15T23:24:27;100623.31;;;17.57;36.88
12213;BME280;6169;44.158;22.788;2023-04-15T23:29:31;100622.44;;;17.67;38.27
12213;BME280;6169;44.158;22.788;2023-04-15T23:34:33;100623.75;;;17.30;37.93
12213;BME280;6169;44.158;22.788;2023-04-15T23:39:35;100632.91;;;17.59;36.69
12213;BME280;6169;44.158;22.788;2023-04-15T23:44:39;100605.78;;;16.98;38.27
12213;BME280;6169;44.158;22.788;2023-04-15T23:49:41;100604.88;;;17.18;38.64
12213;BME280;6169;44.158;22.788;2023-04-15T23:54:43;100608.72;;;17.17;39.58
12213;BME280;6169;44.158;22.788;2023-04-15T23:59:47;100554.47;;;16.93;38.98
